createdAt,value
2022-10-13T00:02:04.541Z,89.05
2022-10-13T00:05:45.075Z,89.07
2022-10-13T00:09:21.385Z,88.99
2022-10-13T00:13:00.991Z,88.87
2022-10-13T00:16:38.324Z,88.86
2022-10-13T00:20:15.469Z,88.73
2022-10-13T00:23:54.159Z,88.59
2022-10-13T00:27:30.580Z,88.58
2022-10-13T00:31:15.515Z,88.44
2022-10-13T00:34:51.730Z,88.45
2022-10-13T00:38:29.718Z,88.56
2022-10-13T00:42:10.650Z,88.52
2022-10-13T00:45:50.227Z,88.57
2022-10-13T00:49:26.393Z,88.57
2022-10-13T00:53:06.135Z,88.73
2022-10-13T00:56:53.957Z,88.88
2022-10-13T01:00:31.109Z,89.09
2022-10-13T01:04:07.756Z,89.01
2022-10-13T01:07:49.406Z,89.01
2022-10-13T01:11:32.549Z,89.05
2022-10-13T01:15:49.000Z,89.33
2022-10-13T01:19:46.576Z,89.36
2022-10-13T01:23:34.869Z,89.55
2022-10-13T01:27:50.574Z,89.60
2022-10-13T01:32:00.627Z,89.83
2022-10-13T01:36:20.127Z,89.99
2022-10-13T01:40:24.005Z,89.91
2022-10-13T01:44:38.082Z,89.95
2022-10-13T01:48:20.500Z,89.90
2022-10-13T01:52:04.880Z,89.86
2022-10-13T01:56:02.390Z,89.86
2022-10-13T01:59:41.824Z,89.91
2022-10-13T02:03:34.738Z,89.91
2022-10-13T02:07:42.491Z,90.16
2022-10-13T02:11:22.313Z,90.17
2022-10-13T02:15:05.345Z,90.15
2022-10-13T02:18:45.168Z,90.18
2022-10-13T02:22:30.124Z,90.20
2022-10-13T02:26:06.821Z,90.38
2022-10-13T02:29:51.259Z,90.64
2022-10-13T02:33:29.164Z,90.80
2022-10-13T02:37:08.286Z,90.66
2022-10-13T02:40:45.586Z,90.57
2022-10-13T02:44:25.150Z,90.64
2022-10-13T02:48:01.550Z,90.72
2022-10-13T02:51:43.448Z,90.70
2022-10-13T02:55:30.627Z,90.70
2022-10-13T02:59:08.349Z,90.70
2022-10-13T03:02:54.479Z,90.80
2022-10-13T03:06:32.116Z,90.81
2022-10-13T03:10:31.261Z,90.87
2022-10-13T03:14:19.591Z,90.92
2022-10-13T03:18:16.646Z,90.92
2022-10-13T03:21:54.171Z,90.94
2022-10-13T03:25:36.415Z,91.07
2022-10-13T03:29:18.472Z,91.10
2022-10-13T03:32:54.625Z,90.98
2022-10-13T03:36:51.085Z,91.07
2022-10-13T03:40:29.497Z,91.18
2022-10-13T03:44:13.439Z,91.23
2022-10-13T03:47:50.940Z,91.33
2022-10-13T03:51:46.070Z,91.26
2022-10-13T03:55:26.210Z,91.37
2022-10-13T03:59:05.298Z,91.51
2022-10-13T04:02:43.031Z,91.76
2022-10-13T04:06:19.878Z,92.02
2022-10-13T04:10:11.606Z,92.02
2022-10-13T04:13:50.136Z,92.08
2022-10-13T04:17:35.805Z,92.08
2022-10-13T04:21:16.546Z,92.11
2022-10-13T04:24:59.484Z,92.20
2022-10-13T04:28:47.735Z,92.23
2022-10-13T04:32:24.270Z,92.19
2022-10-13T04:36:08.135Z,92.24
2022-10-13T04:39:44.332Z,92.16
2022-10-13T04:43:22.235Z,92.27
2022-10-13T04:47:01.716Z,92.35
2022-10-13T04:50:37.829Z,92.49
2022-10-13T04:54:15.523Z,92.42
2022-10-13T04:57:52.928Z,92.44
2022-10-13T05:01:31.025Z,92.49
2022-10-13T05:05:09.616Z,92.49
2022-10-13T05:08:48.515Z,92.51
2022-10-13T05:12:25.690Z,92.54
2022-10-13T05:16:08.620Z,92.43
2022-10-13T05:19:45.578Z,92.42
2022-10-13T05:23:22.298Z,92.47
2022-10-13T05:26:59.952Z,92.59
2022-10-13T05:30:37.646Z,92.56
2022-10-13T05:34:15.488Z,92.56
2022-10-13T05:37:53.158Z,92.54
2022-10-13T05:41:31.570Z,92.54
2022-10-13T05:45:10.915Z,92.47
2022-10-13T05:48:46.895Z,92.52
2022-10-13T05:52:25.650Z,92.53
2022-10-13T05:56:08.984Z,92.33
2022-10-13T05:59:51.178Z,92.22
2022-10-13T06:03:48.083Z,92.02
2022-10-13T06:07:05.354Z,91.97
2022-10-13T06:10:43.842Z,91.77
2022-10-13T06:14:21.170Z,91.51
2022-10-13T06:17:58.037Z,91.37
2022-10-13T06:21:35.780Z,91.17
2022-10-13T06:25:13.170Z,90.85
2022-10-13T06:28:54.462Z,90.65
2022-10-13T06:32:34.131Z,90.61
2022-10-13T06:36:11.984Z,90.14
2022-10-13T06:39:49.205Z,89.92
2022-10-13T06:43:34.362Z,89.35
2022-10-13T06:47:16.394Z,89.30
2022-10-13T06:50:54.235Z,89.02
2022-10-13T06:54:34.714Z,88.63
2022-10-13T06:58:11.934Z,88.76
2022-10-13T07:01:52.013Z,88.23
2022-10-13T07:05:28.418Z,87.59
2022-10-13T07:09:07.836Z,85.69
2022-10-13T07:12:43.866Z,85.42
2022-10-13T07:16:21.940Z,85.16
2022-10-13T07:20:01.315Z,84.04
2022-10-13T07:23:40.521Z,81.91
2022-10-13T07:27:17.878Z,80.80
2022-10-13T07:30:55.156Z,80.43
2022-10-13T07:34:33.288Z,79.87
2022-10-13T07:38:11.813Z,79.23
2022-10-13T07:41:51.045Z,77.45
2022-10-13T07:45:27.870Z,76.23
2022-10-13T07:49:05.485Z,74.12
2022-10-13T07:52:43.340Z,73.23
2022-10-13T07:56:20.955Z,70.92
2022-10-13T07:59:59.047Z,69.76
2022-10-13T08:07:17.057Z,66.23
2022-10-13T08:14:34.775Z,64.26
2022-10-13T08:18:14.528Z,64.34
2022-10-13T08:21:59.156Z,62.93
2022-10-13T08:25:41.012Z,62.66
2022-10-13T08:29:25.240Z,61.28
2022-10-13T08:33:01.433Z,60.04
2022-10-13T08:36:40.057Z,58.59
2022-10-13T08:40:21.090Z,58.16
2022-10-13T08:48:23.430Z,55.42
2022-10-13T08:52:05.705Z,54.22
2022-10-13T08:55:47.504Z,54.25
2022-10-13T08:59:24.834Z,52.75
2022-10-13T09:03:20.166Z,52.54
2022-10-13T09:07:05.448Z,51.76
2022-10-13T09:10:51.227Z,51.42
2022-10-13T09:14:33.582Z,51.49
2022-10-13T09:18:14.176Z,50.53
2022-10-13T09:21:54.369Z,49.86
2022-10-13T09:25:42.750Z,50.85
2022-10-13T09:29:25.059Z,50.38
2022-10-13T09:33:13.706Z,49.29
2022-10-13T09:36:57.267Z,48.66
2022-10-13T09:40:34.470Z,47.37
2022-10-13T09:44:32.473Z,46.40
2022-10-13T09:48:19.452Z,45.75
2022-10-13T09:52:05.010Z,44.25
2022-10-13T09:55:41.075Z,43.67
2022-10-13T09:59:35.981Z,43.41
2022-10-13T10:03:32.912Z,42.77
2022-10-13T10:07:22.005Z,43.66
2022-10-13T10:11:02.777Z,43.22
2022-10-13T10:14:39.380Z,42.03
2022-10-13T10:18:48.773Z,42.55
2022-10-13T10:22:33.877Z,41.59
2022-10-13T10:26:34.474Z,42.01
2022-10-13T10:30:17.275Z,40.30
2022-10-13T10:34:15.387Z,39.78
2022-10-13T10:38:04.436Z,39.41
2022-10-13T10:42:41.885Z,39.30
2022-10-13T10:46:22.805Z,40.29
2022-10-13T10:50:06.363Z,41.24
2022-10-13T10:54:21.724Z,40.42
2022-10-13T10:58:09.956Z,39.96
2022-10-13T11:02:07.568Z,40.08
2022-10-13T11:06:26.475Z,40.67
2022-10-13T11:10:17.888Z,40.01
2022-10-13T11:14:05.735Z,40.07
2022-10-13T11:17:42.516Z,39.78
2022-10-13T11:21:21.991Z,39.49
2022-10-13T11:25:01.244Z,38.44
2022-10-13T11:28:40.367Z,38.58
2022-10-13T11:32:26.950Z,39.32
2022-10-13T11:36:33.053Z,39.71
2022-10-13T11:40:29.246Z,39.43
2022-10-13T11:44:46.274Z,39.20
2022-10-13T11:48:28.719Z,39.48
2022-10-13T11:52:21.427Z,39.44
2022-10-13T11:56:18.536Z,39.23
2022-10-13T11:59:57.459Z,38.87
2022-10-13T12:03:36.676Z,37.43
2022-10-13T12:07:16.617Z,38.06
2022-10-13T12:10:57.579Z,37.46
2022-10-13T12:14:43.409Z,37.81
2022-10-13T12:18:25.389Z,37.95
2022-10-13T12:22:02.389Z,37.95
2022-10-13T12:25:39.264Z,38.42
2022-10-13T12:29:19.891Z,38.61
2022-10-13T12:32:59.274Z,39.16
2022-10-13T12:36:40.870Z,38.63
2022-10-13T12:40:19.403Z,38.12
2022-10-13T12:43:56.301Z,37.98
2022-10-13T12:47:48.547Z,37.91
2022-10-13T12:51:28.579Z,37.74
2022-10-13T12:55:23.535Z,37.85
2022-10-13T12:58:43.796Z,36.24
2022-10-13T13:02:33.170Z,36.36
2022-10-13T13:06:15.468Z,36.94
2022-10-13T13:10:04.494Z,36.91
2022-10-13T13:13:40.570Z,36.37
2022-10-13T13:17:38.448Z,35.84
2022-10-13T13:21:20.074Z,34.41
2022-10-13T13:24:57.423Z,34.86
2022-10-13T13:28:34.086Z,35.00
2022-10-13T13:32:19.991Z,34.55
2022-10-13T13:35:56.689Z,34.66
2022-10-13T13:39:34.582Z,35.31
2022-10-13T13:43:12.982Z,34.76
2022-10-13T13:46:49.374Z,35.31
2022-10-13T13:50:33.404Z,34.77
2022-10-13T13:54:09.707Z,34.54
2022-10-13T13:57:47.222Z,34.19
2022-10-13T14:01:25.949Z,35.40
2022-10-13T14:05:02.793Z,36.08
2022-10-13T14:08:42.936Z,37.16
2022-10-13T14:12:19.791Z,36.98
2022-10-13T14:16:00.030Z,37.68
2022-10-13T14:19:36.702Z,40.30
2022-10-13T14:23:14.441Z,42.75
2022-10-13T14:26:51.982Z,44.99
2022-10-13T14:30:29.285Z,46.70
2022-10-13T14:34:08.303Z,48.32
2022-10-13T14:37:45.266Z,49.07
2022-10-13T14:41:23.414Z,49.71
2022-10-13T14:45:00.410Z,50.15
2022-10-13T14:48:38.570Z,50.83
2022-10-13T14:52:15.187Z,51.42
2022-10-13T14:55:54.524Z,51.64
2022-10-13T14:59:34.275Z,52.05
2022-10-13T15:03:11.740Z,52.62
2022-10-13T15:06:49.376Z,52.90
2022-10-13T15:10:27.184Z,53.33
2022-10-13T15:14:04.904Z,53.66
2022-10-13T15:17:42.494Z,54.16
2022-10-13T15:21:20.262Z,54.67
2022-10-13T15:24:57.692Z,55.10
2022-10-13T15:28:38.417Z,55.64
2022-10-13T15:32:18.620Z,56.40
2022-10-13T15:35:55.605Z,57.37
2022-10-13T15:39:34.181Z,58.12
2022-10-13T15:43:10.777Z,60.36
2022-10-13T15:47:06.707Z,62.44
2022-10-13T15:50:45.403Z,63.42
2022-10-13T15:54:22.696Z,64.20
2022-10-13T15:57:59.646Z,65.07
2022-10-13T16:01:38.397Z,65.72
2022-10-13T16:05:16.041Z,66.75
2022-10-13T16:08:53.780Z,67.50
2022-10-13T16:12:31.294Z,68.25
2022-10-13T16:16:09.494Z,68.62
2022-10-13T16:19:45.658Z,68.79
2022-10-13T16:23:24.765Z,69.28
2022-10-13T16:27:02.105Z,70.32
2022-10-13T16:30:38.895Z,70.36
2022-10-13T16:34:16.334Z,70.99
2022-10-13T16:37:54.070Z,71.46
2022-10-13T16:41:31.782Z,72.13
2022-10-13T16:45:10.930Z,72.76
2022-10-13T16:48:48.699Z,73.56
2022-10-13T16:52:24.988Z,73.85
2022-10-13T16:56:05.114Z,74.45
2022-10-13T16:59:41.419Z,74.62
2022-10-13T17:03:19.121Z,74.87
2022-10-13T17:06:57.028Z,75.25
2022-10-13T17:10:35.034Z,75.63
2022-10-13T17:14:12.346Z,76.31
2022-10-13T17:17:50.795Z,76.58
2022-10-13T17:21:27.647Z,76.94
2022-10-13T17:25:06.680Z,76.84
2022-10-13T17:28:43.410Z,76.68
2022-10-13T17:32:37.825Z,76.54
2022-10-13T17:36:26.097Z,76.26
2022-10-13T17:40:03.124Z,76.10
2022-10-13T17:43:46.602Z,76.03
2022-10-13T17:47:23.028Z,76.13
2022-10-13T17:51:09.296Z,76.38
2022-10-13T17:54:45.683Z,76.62
2022-10-13T17:58:22.846Z,76.79
2022-10-13T18:02:00.699Z,76.78
2022-10-13T18:05:42.367Z,76.60
2022-10-13T18:09:24.428Z,76.51
2022-10-13T18:13:00.440Z,76.30
2022-10-13T18:16:39.138Z,76.31
2022-10-13T18:20:15.939Z,76.30
2022-10-13T18:23:59.579Z,76.45
2022-10-13T18:27:36.781Z,76.54
2022-10-13T18:31:27.698Z,76.49
2022-10-13T18:35:04.225Z,76.44
2022-10-13T18:38:41.779Z,76.44
2022-10-13T18:42:19.479Z,76.80
2022-10-13T18:46:14.678Z,77.17
2022-10-13T18:49:50.855Z,77.40
2022-10-13T18:53:29.174Z,77.57
2022-10-13T18:57:06.058Z,77.60
2022-10-13T19:00:43.830Z,77.95
2022-10-13T19:04:23.400Z,78.51
2022-10-13T19:08:00.744Z,78.61
2022-10-13T19:11:38.062Z,78.95
2022-10-13T19:15:15.403Z,79.05
2022-10-13T19:18:53.440Z,78.98
2022-10-13T19:22:31.312Z,79.07
2022-10-13T19:26:14.651Z,79.09
2022-10-13T19:29:55.060Z,79.08
2022-10-13T19:33:31.832Z,79.06
2022-10-13T19:37:09.646Z,79.00
2022-10-13T19:40:50.015Z,78.93
2022-10-13T19:44:27.997Z,78.85
2022-10-13T19:48:05.374Z,78.83
2022-10-13T19:51:43.438Z,78.82
2022-10-13T19:55:21.197Z,78.85
2022-10-13T19:59:00.105Z,78.74
2022-10-13T20:02:36.287Z,78.63
2022-10-13T20:06:15.532Z,78.62
2022-10-13T20:09:51.680Z,78.61
2022-10-13T20:13:30.316Z,78.69
2022-10-13T20:17:07.214Z,78.70
2022-10-13T20:20:45.812Z,78.71
2022-10-13T20:24:24.653Z,78.70
2022-10-13T20:28:00.602Z,78.79
2022-10-13T20:31:38.238Z,78.76
2022-10-13T20:35:16.125Z,79.12
2022-10-13T20:38:54.968Z,79.24
2022-10-13T20:42:32.504Z,79.52
2022-10-13T20:46:10.675Z,80.00
2022-10-13T20:49:47.973Z,80.51
2022-10-13T20:53:25.358Z,80.68
2022-10-13T20:57:03.270Z,80.89
2022-10-13T21:00:43.985Z,81.15
2022-10-13T21:04:20.126Z,81.45
2022-10-13T21:07:57.924Z,81.72
2022-10-13T21:11:36.438Z,81.94
2022-10-13T21:15:13.009Z,82.39
2022-10-13T21:18:52.054Z,82.22
2022-10-13T21:22:30.669Z,82.20
2022-10-13T21:26:09.084Z,82.34
2022-10-13T21:29:46.792Z,82.55
2022-10-13T21:33:23.775Z,82.76
2022-10-13T21:37:01.593Z,82.99
2022-10-13T21:40:38.775Z,83.33
2022-10-13T21:44:16.592Z,83.64
2022-10-13T21:47:55.000Z,83.75
2022-10-13T21:51:37.808Z,83.89
2022-10-13T21:55:17.065Z,83.92
2022-10-13T21:58:56.610Z,84.09
2022-10-13T22:02:33.391Z,84.31
2022-10-13T22:06:18.525Z,84.21
2022-10-13T22:09:56.375Z,84.18
2022-10-13T22:13:33.664Z,84.15
2022-10-13T22:17:10.655Z,84.06
2022-10-13T22:20:48.460Z,84.04
2022-10-13T22:24:26.365Z,84.08
2022-10-13T22:28:03.965Z,84.14
2022-10-13T22:31:43.514Z,84.19
2022-10-13T22:35:19.989Z,84.47
2022-10-13T22:39:02.966Z,84.77
2022-10-13T22:42:39.285Z,84.75
2022-10-13T22:46:19.813Z,84.89
2022-10-13T22:49:56.125Z,85.00
2022-10-13T22:53:35.055Z,85.06
2022-10-13T22:57:12.898Z,85.08
2022-10-13T23:00:50.373Z,85.21
2022-10-13T23:04:28.470Z,85.39
2022-10-13T23:08:06.278Z,85.71
2022-10-13T23:11:44.606Z,85.66
2022-10-13T23:15:21.274Z,85.79
2022-10-13T23:18:58.886Z,85.80
2022-10-13T23:22:37.194Z,85.90
2022-10-13T23:26:18.082Z,86.01
2022-10-13T23:29:57.615Z,86.01
2022-10-13T23:33:35.319Z,86.02
2022-10-13T23:37:12.834Z,86.17
2022-10-13T23:40:50.945Z,86.40
2022-10-13T23:44:30.376Z,86.66
2022-10-13T23:48:07.062Z,86.80
2022-10-13T23:51:49.582Z,86.77
2022-10-13T23:55:39.259Z,86.85
2022-10-13T23:59:15.434Z,86.82
